createdAt,value
2018-12-16T00:04:49.948Z,98934.23
2018-12-16T00:09:54.976Z,98941.27
2018-12-16T00:14:59.713Z,98941.33
2018-12-16T00:20:04.373Z,98951.02
2018-12-16T00:25:09.432Z,98949.63
2018-12-16T00:35:51.602Z,98942.11
2018-12-16T00:40:56.002Z,98947.37
2018-12-16T00:46:00.492Z,98946.77
2018-12-16T00:51:05.033Z,98948.84
2018-12-16T00:56:09.583Z,98945.05
2018-12-16T01:01:14.161Z,98945.05
2018-12-16T01:06:18.662Z,98939.45
2018-12-16T01:11:23.233Z,98936.63
2018-12-16T01:16:27.923Z,98942.02
2018-12-16T01:26:54.279Z,98927.00
2018-12-16T01:31:58.640Z,98961.67
2018-12-16T01:37:03.134Z,99002.87
2018-12-16T01:42:07.598Z,98976.64
2018-12-16T01:47:12.259Z,98985.13
2018-12-16T01:52:16.975Z,98998.64
2018-12-16T01:57:21.588Z,99008.67
2018-12-16T02:02:26.058Z,98974.03
2018-12-16T02:07:30.573Z,98972.81
2018-12-16T02:12:34.982Z,98969.98
2018-12-16T02:17:39.588Z,98964.78
2018-12-16T02:22:44.144Z,98967.93
2018-12-16T02:27:48.653Z,98963.67
2018-12-16T02:32:53.173Z,98964.02
2018-12-16T02:37:57.880Z,98965.91
2018-12-16T02:43:02.443Z,98959.44
2018-12-16T02:48:06.940Z,98951.81
2018-12-16T02:53:11.358Z,98949.62
2018-12-16T02:58:15.688Z,98944.84
2018-12-16T03:03:20.429Z,98933.44
2018-12-16T03:08:24.907Z,98933.41
2018-12-16T03:13:29.352Z,98940.02
2018-12-16T03:18:33.916Z,98946.00
2018-12-16T03:23:38.234Z,98925.87
2018-12-16T03:28:48.410Z,98927.14
2018-12-16T03:33:52.933Z,98931.68
2018-12-16T03:38:57.314Z,98923.05
2018-12-16T03:44:01.739Z,98925.44
2018-12-16T03:49:06.272Z,98934.61
2018-12-16T03:54:10.669Z,98940.58
2018-12-16T03:59:19.383Z,98944.08
2018-12-16T04:04:23.849Z,98945.62
2018-12-16T04:09:28.344Z,98926.41
2018-12-16T04:14:32.816Z,98913.30
2018-12-16T04:19:37.381Z,98906.94
2018-12-16T04:24:41.776Z,98906.84
2018-12-16T04:29:46.190Z,98903.19
2018-12-16T04:34:50.720Z,98892.88
2018-12-16T04:39:55.184Z,98895.98
2018-12-16T04:44:59.738Z,98883.32
2018-12-16T04:50:04.415Z,98883.20
2018-12-16T04:55:09.025Z,98874.84
2018-12-16T05:00:13.698Z,98874.24
2018-12-16T05:05:18.230Z,98870.53
2018-12-16T05:10:28.443Z,98858.09
2018-12-16T05:15:33.029Z,98861.62
2018-12-16T05:20:37.624Z,98851.61
2018-12-16T05:25:41.989Z,98851.40
2018-12-16T05:30:46.714Z,98846.88
2018-12-16T05:35:51.124Z,98842.44
2018-12-16T05:40:55.420Z,98846.17
2018-12-16T05:45:59.985Z,98837.08
2018-12-16T05:51:04.488Z,98826.48
2018-12-16T05:56:09.019Z,98808.84
2018-12-16T06:01:13.419Z,98805.94
2018-12-16T06:06:18.073Z,98801.12
2018-12-16T06:11:22.640Z,98795.23
2018-12-16T06:16:27.167Z,98781.61
2018-12-16T06:21:31.800Z,98772.31
2018-12-16T06:26:36.123Z,98783.20
2018-12-16T06:31:40.656Z,98779.24
2018-12-16T06:36:45.248Z,98782.00
2018-12-16T06:41:49.668Z,98803.07
2018-12-16T06:46:54.185Z,98792.84
2018-12-16T06:51:58.723Z,98778.05
2018-12-16T06:57:03.200Z,98780.80
2018-12-16T07:02:07.724Z,98775.45
2018-12-16T07:07:12.283Z,98778.38
2018-12-16T07:12:16.787Z,98777.38
2018-12-16T07:17:21.331Z,98775.30
2018-12-16T07:22:26.042Z,98773.48
2018-12-16T07:27:30.383Z,98770.95
2018-12-16T07:32:34.962Z,98766.54
2018-12-16T07:37:39.363Z,98767.17
2018-12-16T07:42:43.932Z,98764.52
2018-12-16T07:47:48.474Z,98760.64
2018-12-16T07:52:52.898Z,98750.70
2018-12-16T07:57:57.602Z,98740.02
2018-12-16T08:03:04.513Z,98739.59
2018-12-16T08:08:09.042Z,98743.05
2018-12-16T08:13:13.634Z,98740.39
2018-12-16T08:18:18.170Z,98737.56
2018-12-16T08:23:24.968Z,98729.94
2018-12-16T08:28:29.383Z,98725.00
2018-12-16T08:33:33.981Z,98717.52
2018-12-16T08:38:38.328Z,98706.59
2018-12-16T08:43:42.970Z,98689.67
2018-12-16T08:48:47.566Z,98693.38
2018-12-16T08:53:52.146Z,98682.44
2018-12-16T08:58:56.674Z,98679.47
2018-12-16T09:04:01.428Z,98689.34
2018-12-16T09:09:08.531Z,98679.59
2018-12-16T09:14:12.984Z,98684.13
2018-12-16T09:19:17.448Z,98666.74
2018-12-16T09:24:22.108Z,98657.11
2018-12-16T09:29:26.499Z,98727.03
2018-12-16T09:34:30.928Z,98717.88
2018-12-16T09:39:35.373Z,98716.89
2018-12-16T09:44:40.063Z,98714.63
2018-12-16T09:49:44.614Z,98706.88
2018-12-16T09:54:49.137Z,98692.27
2018-12-16T09:59:53.425Z,98689.63
2018-12-16T10:04:57.715Z,98681.87
2018-12-16T10:10:02.196Z,98682.98
2018-12-16T10:15:07.003Z,98676.60
2018-12-16T10:20:12.582Z,98669.29
2018-12-16T10:25:16.964Z,98653.03
2018-12-16T10:30:21.338Z,98653.74
2018-12-16T10:35:25.658Z,98646.29
2018-12-16T10:40:30.219Z,98643.63
2018-12-16T10:45:34.734Z,98653.13
2018-12-16T10:50:39.185Z,98638.77
2018-12-16T10:55:43.769Z,98624.45
2018-12-16T11:00:52.313Z,98611.60
2018-12-16T11:05:56.883Z,98600.53
2018-12-16T11:11:03.373Z,98596.02
2018-12-16T11:16:07.914Z,98572.72
2018-12-16T11:21:12.338Z,98567.30
2018-12-16T11:26:16.929Z,98556.23
2018-12-16T11:31:21.405Z,98548.56
2018-12-16T11:36:25.860Z,98535.36
2018-12-16T11:42:33.531Z,98529.41
2018-12-16T11:47:37.949Z,98525.34
2018-12-16T11:52:42.399Z,98520.50
2018-12-16T11:57:46.830Z,98507.17
2018-12-16T12:02:51.078Z,98523.14
2018-12-16T12:24:19.307Z,98527.75
2018-12-16T12:29:24.245Z,98512.89
2018-12-16T12:34:28.845Z,98510.71
2018-12-16T12:39:33.517Z,98511.95
2018-12-16T12:44:37.990Z,98489.53
2018-12-16T12:49:45.090Z,98499.16
2018-12-16T12:54:48.806Z,98504.77
2018-12-16T12:59:53.410Z,98504.85
2018-12-16T13:04:57.917Z,98490.88
2018-12-16T13:10:02.377Z,98510.42
2018-12-16T13:15:09.149Z,98510.87
2018-12-16T13:20:13.718Z,98515.62
2018-12-16T13:25:33.643Z,98519.28
2018-12-16T13:30:33.137Z,98523.95
2018-12-16T13:35:37.517Z,98526.77
2018-12-16T13:40:42.177Z,98538.26
2018-12-16T13:45:46.777Z,98539.34
2018-12-16T13:50:51.436Z,98544.33
2018-12-16T13:55:55.897Z,98548.89
2018-12-16T14:01:00.250Z,98552.02
2018-12-16T14:06:04.770Z,98555.94
2018-12-16T14:11:09.291Z,98558.63
2018-12-16T14:16:13.776Z,98577.98
2018-12-16T14:21:18.598Z,98582.52
2018-12-16T14:26:23.118Z,98598.27
2018-12-16T14:31:27.897Z,98614.52
2018-12-16T14:36:32.598Z,98616.35
2018-12-16T14:41:37.078Z,98628.52
2018-12-16T14:46:41.676Z,98622.88
2018-12-16T14:51:46.297Z,98635.05
2018-12-16T14:56:50.897Z,98650.83
2018-12-16T15:01:55.517Z,98676.86
2018-12-16T15:07:00.097Z,98677.98
2018-12-16T15:12:04.596Z,98693.44
2018-12-16T15:17:09.217Z,98709.12
2018-12-16T15:22:13.717Z,98721.34
2018-12-16T15:27:18.157Z,98734.84
2018-12-16T15:32:22.917Z,98742.75
2018-12-16T15:37:28.177Z,98752.69
2018-12-16T15:42:32.799Z,98758.70
2018-12-16T15:53:15.517Z,98795.52
2018-12-16T15:58:20.117Z,98807.91
2018-12-16T16:03:24.776Z,98813.36
2018-12-16T16:08:29.356Z,98832.97
2018-12-16T16:13:33.956Z,98850.70
2018-12-16T16:18:39.918Z,98844.00
2018-12-16T16:23:44.538Z,98863.22
2018-12-16T16:28:49.218Z,98874.09
2018-12-16T16:33:54.139Z,98893.05
2018-12-16T16:38:58.819Z,98891.17
2018-12-16T16:44:03.358Z,98910.66
2018-12-16T16:49:07.879Z,98916.17
2018-12-16T16:54:12.538Z,98926.59
2018-12-16T16:59:16.899Z,98935.47
2018-12-16T17:04:21.399Z,98951.30
2018-12-16T17:15:04.421Z,98976.97
2018-12-16T17:20:09.119Z,98983.12
2018-12-16T17:25:13.678Z,99002.00
2018-12-16T17:30:18.098Z,99011.75
2018-12-16T17:35:22.759Z,99020.00
2018-12-16T17:40:41.569Z,99005.55
2018-12-16T17:51:14.129Z,99053.00
2018-12-16T17:56:18.830Z,99065.84
2018-12-16T18:01:34.989Z,99072.16
2018-12-16T18:06:39.989Z,99076.91
2018-12-16T18:11:44.957Z,99081.41
2018-12-16T18:16:49.574Z,99088.63
2018-12-16T18:21:54.094Z,99097.31
2018-12-16T18:26:58.714Z,99105.73
2018-12-16T18:32:03.154Z,99124.24
2018-12-16T18:37:07.906Z,99122.63
2018-12-16T18:42:12.574Z,99135.59
2018-12-16T18:47:17.113Z,99141.89
2018-12-16T18:52:21.634Z,99143.56
2018-12-16T18:57:26.273Z,99149.22
2018-12-16T19:02:30.894Z,99158.50
2018-12-16T19:07:35.714Z,99179.11
2018-12-16T19:12:40.274Z,99196.03
2018-12-16T19:17:44.694Z,99196.95
2018-12-16T19:22:49.237Z,99213.33
2018-12-16T19:27:53.913Z,99212.06
2018-12-16T19:32:58.332Z,99226.58
2018-12-16T19:38:03.319Z,99240.73
2018-12-16T19:43:08.137Z,99247.68
2018-12-16T19:48:12.814Z,99260.10
2018-12-16T19:53:17.253Z,99269.09
2018-12-16T19:58:22.173Z,99275.45
2018-12-16T20:03:26.734Z,99276.78
2018-12-16T20:08:31.334Z,99284.13
2018-12-16T20:13:35.833Z,99294.83
2018-12-16T20:18:40.514Z,99299.28
2018-12-16T20:23:44.853Z,99316.06
2018-12-16T20:28:49.233Z,99317.72
2018-12-16T20:33:53.815Z,99321.83
2018-12-16T20:38:58.453Z,99326.49
2018-12-16T20:44:03.175Z,99330.66
2018-12-16T20:49:07.674Z,99340.08
2018-12-16T20:54:12.273Z,99350.78
2018-12-16T20:59:16.794Z,99363.25
2018-12-16T21:04:21.354Z,99369.57
2018-12-16T21:09:26.034Z,99380.19
2018-12-16T21:14:34.833Z,99385.48
2018-12-16T21:19:39.333Z,99389.27
2018-12-16T21:24:43.815Z,99396.21
2018-12-16T21:29:48.314Z,99407.05
2018-12-16T21:34:52.813Z,99417.11
2018-12-16T21:39:57.653Z,99433.48
2018-12-16T21:45:02.315Z,99433.03
2018-12-16T21:50:07.652Z,99449.63
2018-12-16T21:55:12.193Z,99456.59
2018-12-16T22:00:16.914Z,99469.16
2018-12-16T22:05:25.393Z,99467.63
2018-12-16T22:10:33.453Z,99479.55
2018-12-16T22:15:37.997Z,99485.34
2018-12-16T22:20:42.525Z,99496.05
2018-12-16T22:25:47.105Z,99491.68
2018-12-16T22:30:51.764Z,99504.20
2018-12-16T22:35:56.293Z,99500.85
2018-12-16T22:41:00.973Z,99496.16
2018-12-16T22:46:05.594Z,99511.48
2018-12-16T22:51:10.132Z,99512.61
2018-12-16T22:56:14.875Z,99518.81
2018-12-16T23:01:19.552Z,99534.98
2018-12-16T23:06:23.993Z,99550.49
2018-12-16T23:11:29.732Z,99553.69
2018-12-16T23:16:34.392Z,99563.38
2018-12-16T23:21:38.835Z,99564.23
2018-12-16T23:26:43.312Z,99571.53
2018-12-16T23:31:47.833Z,99579.12
2018-12-16T23:36:52.533Z,99598.60
2018-12-16T23:41:57.153Z,99607.50
2018-12-16T23:47:01.692Z,99611.50
2018-12-16T23:52:06.291Z,99615.97
2018-12-16T23:57:10.872Z,99630.63
